To NAV CANADA Home Page Login to a new session Search on AWWS site Feedback and Comments Disclaimer Vers la page française équivalente Tips FAQ What's new on the site To the Forecasts and Observations / NOTAM section To "File a Flight Plan" website Publications and other links Update of the User's profile FIC Telephone Numbers My Weather Data Folder Route Weather Data Regional Weather Data Local Weather Data To the Forecasts and Observations / NOTAM section
Request Generated 06/26/2017 at 03:34:53 UTC . Weather information available at that time is displayed.

METAR/TAF

KELOWNA/BC    (show WxCam)

METAR CYLW 260300Z AUTO 36003KT 340V050 9SM CLR 26/17 A2982 RMK
TS/LTNG TEMPO UNAVBL SLP091 DENSITY ALT 3100FT=
METAR CYLW 260200Z AUTO 04002KT 9SM CLR 30/16 A2982 RMK TS/LTNG TEMPO
UNAVBL SLP092 DENSITY ALT 3500FT=
METAR CYLW 260100Z AUTO 00000KT 9SM CLR 29/18 A2984 RMK TS/LTNG TEMPO
UNAVBL SLP103 DENSITY ALT 3400FT=

TAF CYLW 260038Z 2601/2613 16005KT P6SM BKN240
RMK FCST BASED ON AUTO OBS. NXT FCST BY 260700Z=
Your time UTC time
Weather data provided by Environment Canada and NAV CANADA